createdAt,value
2022-12-31T00:01:32.793Z,5.50
2022-12-31T00:04:01.261Z,13.40
2022-12-31T00:06:36.252Z,5.60
2022-12-31T00:09:06.957Z,3.10
2022-12-31T00:11:36.736Z,6.20
2022-12-31T00:14:05.810Z,4.50
2022-12-31T00:16:37.505Z,8.60
2022-12-31T00:19:07.840Z,6.50
2022-12-31T00:21:37.537Z,4.90
2022-12-31T00:24:07.136Z,5.30
2022-12-31T00:26:35.702Z,5.80
2022-12-31T00:29:05.253Z,5.40
2022-12-31T00:31:36.275Z,6.60
2022-12-31T00:34:05.720Z,5.80
2022-12-31T00:36:38.819Z,4.60
2022-12-31T00:39:08.316Z,7.20
2022-12-31T00:41:37.853Z,5.80
2022-12-31T00:44:06.184Z,5.20
2022-12-31T00:49:03.207Z,5.40
2022-12-31T00:51:31.637Z,5.40
2022-12-31T00:54:00.259Z,8.00
2022-12-31T00:56:30.704Z,6.40
2022-12-31T00:59:00.356Z,8.50
2022-12-31T01:01:31.967Z,9.90
2022-12-31T01:04:07.705Z,12.20
2022-12-31T01:06:36.577Z,3.70
2022-12-31T01:09:09.822Z,7.20
2022-12-31T01:11:38.291Z,5.20
2022-12-31T01:14:08.778Z,5.80
2022-12-31T01:16:46.399Z,5.80
2022-12-31T01:19:22.310Z,4.50
2022-12-31T01:21:52.475Z,6.10
2022-12-31T01:24:21.485Z,7.60
2022-12-31T01:26:49.763Z,7.50
2022-12-31T01:29:18.251Z,3.30
2022-12-31T01:31:46.497Z,7.90
2022-12-31T01:34:14.708Z,9.10
2022-12-31T01:36:43.175Z,5.80
2022-12-31T01:39:12.423Z,7.70
2022-12-31T01:41:43.889Z,8.90
2022-12-31T01:44:11.992Z,5.00
2022-12-31T01:46:49.923Z,4.90
2022-12-31T01:49:45.138Z,8.20
2022-12-31T01:52:28.541Z,5.50
2022-12-31T01:55:15.046Z,12.00
2022-12-31T01:57:46.856Z,7.60
2022-12-31T02:00:16.396Z,6.40
2022-12-31T02:02:44.765Z,6.80
2022-12-31T02:05:33.285Z,3.60
2022-12-31T02:08:03.118Z,7.40
2022-12-31T02:10:31.272Z,7.90
2022-12-31T02:13:00.204Z,7.70
2022-12-31T02:15:58.305Z,4.60
2022-12-31T02:18:47.091Z,5.50
2022-12-31T02:21:41.923Z,4.50
2022-12-31T02:24:16.112Z,6.70
2022-12-31T02:26:56.395Z,4.50
2022-12-31T02:29:30.309Z,9.20
2022-12-31T02:32:05.425Z,7.00
2022-12-31T02:34:58.448Z,5.40
2022-12-31T02:37:31.672Z,4.70
2022-12-31T02:40:00.928Z,3.00
2022-12-31T02:42:29.143Z,10.80
2022-12-31T02:44:57.339Z,5.60
2022-12-31T02:47:50.467Z,8.00
2022-12-31T02:50:36.269Z,8.10
2022-12-31T02:53:34.337Z,6.30
2022-12-31T02:56:22.673Z,4.30
2022-12-31T03:01:33.004Z,6.10
2022-12-31T03:04:03.424Z,7.30
2022-12-31T03:06:31.998Z,4.80
2022-12-31T03:09:03.243Z,6.90
2022-12-31T03:11:31.807Z,6.70
2022-12-31T03:14:00.035Z,5.10
2022-12-31T03:16:28.453Z,4.60
2022-12-31T03:18:56.835Z,5.40
2022-12-31T03:21:25.330Z,6.40
2022-12-31T03:23:54.995Z,5.30
2022-12-31T03:26:24.433Z,5.60
2022-12-31T03:28:52.883Z,4.00
2022-12-31T03:31:25.126Z,5.40
2022-12-31T03:33:53.580Z,7.50
2022-12-31T03:36:25.133Z,5.90
2022-12-31T03:38:53.826Z,5.30
2022-12-31T03:41:22.026Z,6.80
2022-12-31T03:43:53.218Z,8.00
2022-12-31T03:46:23.816Z,9.50
2022-12-31T03:48:52.567Z,5.00
2022-12-31T03:51:23.934Z,7.90
2022-12-31T03:53:52.223Z,8.50
2022-12-31T03:56:20.891Z,7.40
2022-12-31T03:58:51.952Z,6.20
2022-12-31T04:01:21.469Z,6.40
2022-12-31T04:03:51.365Z,7.90
2022-12-31T04:06:20.194Z,8.80
2022-12-31T04:08:53.171Z,6.00
2022-12-31T04:11:21.869Z,7.90
2022-12-31T04:13:50.541Z,5.70
2022-12-31T04:16:19.323Z,6.20
2022-12-31T04:18:47.923Z,6.20
2022-12-31T04:21:16.535Z,6.30
2022-12-31T04:23:44.830Z,8.90
2022-12-31T04:26:13.427Z,4.30
2022-12-31T04:28:41.686Z,9.40
2022-12-31T04:31:10.410Z,10.10
2022-12-31T04:33:38.734Z,6.10
2022-12-31T04:36:08.668Z,4.70
2022-12-31T04:38:37.149Z,4.30
2022-12-31T04:41:05.729Z,7.30
2022-12-31T04:43:34.174Z,5.20
2022-12-31T04:46:02.860Z,4.10
2022-12-31T04:48:31.627Z,5.20
2022-12-31T04:51:00.152Z,6.10
2022-12-31T04:53:29.087Z,4.90
2022-12-31T04:55:57.638Z,6.70
2022-12-31T04:58:25.949Z,3.50
2022-12-31T05:00:54.686Z,5.60
2022-12-31T05:03:25.381Z,6.00
2022-12-31T05:05:54.608Z,5.90
2022-12-31T05:08:22.986Z,5.90
2022-12-31T05:10:51.568Z,7.10
2022-12-31T05:13:20.165Z,6.60
2022-12-31T05:15:48.906Z,6.70
2022-12-31T05:18:18.403Z,7.80
2022-12-31T05:20:48.453Z,8.10
2022-12-31T05:23:19.745Z,6.20
2022-12-31T05:25:48.948Z,4.20
2022-12-31T05:28:18.433Z,6.70
2022-12-31T05:30:50.465Z,10.30
2022-12-31T05:33:19.188Z,5.90
2022-12-31T05:35:47.683Z,7.20
2022-12-31T05:38:16.153Z,6.60
2022-12-31T05:40:44.984Z,6.60
2022-12-31T05:43:13.212Z,8.30
2022-12-31T05:45:41.584Z,5.50
2022-12-31T05:48:09.804Z,10.30
2022-12-31T05:50:38.057Z,4.90
2022-12-31T05:53:06.361Z,8.00
2022-12-31T05:55:34.599Z,7.30
2022-12-31T05:58:02.764Z,9.20
2022-12-31T06:00:31.153Z,4.10
2022-12-31T06:02:59.471Z,10.80
2022-12-31T06:05:27.791Z,4.80
2022-12-31T06:07:56.511Z,7.10
2022-12-31T06:10:24.987Z,8.50
2022-12-31T06:12:53.180Z,7.90
2022-12-31T06:15:21.465Z,8.80
2022-12-31T06:17:49.764Z,5.10
2022-12-31T06:20:18.047Z,6.00
2022-12-31T06:22:46.592Z,12.90
2022-12-31T06:25:15.045Z,8.40
2022-12-31T06:27:43.283Z,7.70
2022-12-31T06:30:12.520Z,6.40
2022-12-31T06:32:40.867Z,4.80
2022-12-31T06:35:11.323Z,9.70
2022-12-31T06:37:39.594Z,6.60
2022-12-31T06:40:08.504Z,8.60
2022-12-31T06:42:36.806Z,9.50
2022-12-31T06:45:05.844Z,8.10
2022-12-31T06:47:34.473Z,5.00
2022-12-31T06:50:02.618Z,10.50
2022-12-31T06:52:31.086Z,8.00
2022-12-31T06:54:59.594Z,5.80
2022-12-31T06:57:28.117Z,8.20
2022-12-31T06:59:57.185Z,10.90
2022-12-31T07:02:50.659Z,7.50
2022-12-31T07:05:51.491Z,5.60
2022-12-31T07:08:31.447Z,12.50
2022-12-31T07:11:18.290Z,7.60
2022-12-31T07:14:01.451Z,6.60
2022-12-31T07:17:03.649Z,9.90
2022-12-31T07:19:58.161Z,10.70
2022-12-31T07:22:26.731Z,8.10
2022-12-31T07:24:55.669Z,7.40
2022-12-31T07:28:10.601Z,6.20
2022-12-31T07:31:07.829Z,7.80
2022-12-31T07:33:51.784Z,8.10
2022-12-31T07:36:29.846Z,6.60
2022-12-31T07:39:15.790Z,10.40
2022-12-31T07:41:44.000Z,11.40
2022-12-31T07:44:34.051Z,11.10
2022-12-31T07:47:05.538Z,12.30
2022-12-31T07:49:34.650Z,12.40
2022-12-31T07:52:03.335Z,19.10
2022-12-31T07:54:31.600Z,6.40
2022-12-31T07:57:00.335Z,10.20
2022-12-31T08:00:09.020Z,13.20
2022-12-31T08:03:00.392Z,12.50
2022-12-31T08:05:59.494Z,15.40
2022-12-31T08:08:47.850Z,18.50
2022-12-31T08:11:30.822Z,14.80
2022-12-31T08:14:01.951Z,10.10
2022-12-31T08:16:30.629Z,12.60
2022-12-31T08:18:59.288Z,12.20
2022-12-31T08:21:36.569Z,9.60
2022-12-31T08:24:35.139Z,11.40
2022-12-31T08:27:04.006Z,11.10
2022-12-31T08:29:50.678Z,9.80
2022-12-31T08:32:41.096Z,8.00
2022-12-31T08:35:40.750Z,9.00
2022-12-31T08:38:21.359Z,13.00
2022-12-31T08:41:04.643Z,7.80
2022-12-31T08:44:05.332Z,10.50
2022-12-31T08:46:42.699Z,10.00
2022-12-31T08:49:11.299Z,16.30
2022-12-31T08:51:39.783Z,14.70
2022-12-31T08:54:11.315Z,12.30
2022-12-31T08:56:50.333Z,6.80
2022-12-31T08:59:22.235Z,18.00
2022-12-31T09:02:17.763Z,16.50
2022-12-31T09:04:48.970Z,8.40
2022-12-31T09:07:23.124Z,7.50
2022-12-31T09:10:18.389Z,10.10
2022-12-31T09:13:05.811Z,10.70
2022-12-31T09:15:42.208Z,11.30
2022-12-31T09:18:12.500Z,14.80
2022-12-31T09:20:43.751Z,14.90
2022-12-31T09:23:14.139Z,17.10
2022-12-31T09:25:53.862Z,10.80
2022-12-31T09:29:01.879Z,15.50
2022-12-31T09:31:38.881Z,8.80
2022-12-31T09:34:25.292Z,19.80
2022-12-31T09:39:45.623Z,13.50
2022-12-31T09:45:06.352Z,16.80
2022-12-31T09:47:52.867Z,21.30
2022-12-31T09:50:43.150Z,9.40
2022-12-31T09:53:17.049Z,9.90
2022-12-31T09:55:48.144Z,14.40
2022-12-31T09:58:34.697Z,10.80
2022-12-31T10:04:08.733Z,16.40
2022-12-31T10:07:05.354Z,13.60
2022-12-31T10:09:50.098Z,16.00
2022-12-31T10:12:30.931Z,16.30
2022-12-31T10:15:05.027Z,18.90
2022-12-31T10:18:02.406Z,21.90
2022-12-31T10:20:51.346Z,15.10
2022-12-31T10:23:44.702Z,15.40
2022-12-31T10:26:29.394Z,22.20
2022-12-31T10:29:25.508Z,20.90
2022-12-31T10:31:53.664Z,19.70
2022-12-31T10:34:37.100Z,17.00
2022-12-31T10:37:11.221Z,20.00
2022-12-31T10:39:48.736Z,17.90
2022-12-31T10:42:55.021Z,17.50
2022-12-31T10:45:34.689Z,17.40
2022-12-31T10:48:28.713Z,17.80
2022-12-31T10:51:20.946Z,17.80
2022-12-31T10:54:26.820Z,16.70
2022-12-31T10:57:12.764Z,20.40
2022-12-31T10:59:53.396Z,25.30
2022-12-31T11:02:40.699Z,22.00
2022-12-31T11:05:12.026Z,20.70
2022-12-31T11:08:02.321Z,17.50
2022-12-31T11:11:01.668Z,14.20
2022-12-31T11:13:48.837Z,15.70
2022-12-31T11:16:34.487Z,12.20
2022-12-31T11:19:31.215Z,11.80
2022-12-31T11:22:29.863Z,10.70
2022-12-31T11:25:16.275Z,11.80
2022-12-31T11:28:09.682Z,18.70
2022-12-31T11:31:06.436Z,14.00
2022-12-31T11:34:02.627Z,11.10
2022-12-31T11:36:49.905Z,10.60
2022-12-31T11:39:31.396Z,12.40
2022-12-31T11:42:20.385Z,22.60
2022-12-31T11:45:04.688Z,13.90
2022-12-31T11:48:28.993Z,10.80
2022-12-31T11:51:09.931Z,13.00
2022-12-31T11:54:19.028Z,11.50
2022-12-31T11:57:25.038Z,11.20
2022-12-31T11:59:59.341Z,7.30
2022-12-31T12:02:38.214Z,17.50
2022-12-31T12:05:10.918Z,11.20
2022-12-31T12:07:39.899Z,6.80
2022-12-31T12:10:33.550Z,10.90
2022-12-31T12:13:15.066Z,6.80
2022-12-31T12:15:50.399Z,10.40
2022-12-31T12:18:42.355Z,13.00
2022-12-31T12:21:14.725Z,18.00
2022-12-31T12:24:17.631Z,12.10
2022-12-31T12:26:48.711Z,14.40
2022-12-31T12:29:30.574Z,11.80
2022-12-31T12:32:16.293Z,13.00
2022-12-31T12:34:49.664Z,10.20
2022-12-31T12:37:38.713Z,8.10
2022-12-31T12:40:22.881Z,9.20
2022-12-31T12:42:53.688Z,5.30
2022-12-31T12:45:26.220Z,7.30
2022-12-31T12:48:08.015Z,9.70
2022-12-31T12:50:44.016Z,12.40
2022-12-31T12:53:20.249Z,18.00
2022-12-31T12:56:38.011Z,13.90
2022-12-31T12:59:09.216Z,10.10
2022-12-31T13:01:42.777Z,10.20
2022-12-31T13:04:33.996Z,10.40
2022-12-31T13:07:10.017Z,16.70
2022-12-31T13:10:20.123Z,11.00
2022-12-31T13:16:01.613Z,16.70
2022-12-31T13:19:14.150Z,7.90
2022-12-31T13:21:53.541Z,8.40
2022-12-31T13:24:48.311Z,10.10
2022-12-31T13:27:28.940Z,11.70
2022-12-31T13:30:05.095Z,17.00
2022-12-31T13:32:45.258Z,15.80
2022-12-31T13:35:35.075Z,12.50
2022-12-31T13:38:29.824Z,10.20
2022-12-31T13:40:58.128Z,10.50
2022-12-31T13:43:35.546Z,8.70
2022-12-31T13:49:10.417Z,7.90
2022-12-31T13:51:53.763Z,10.90
2022-12-31T13:54:22.034Z,12.30
2022-12-31T13:56:52.376Z,25.20
2022-12-31T13:59:43.501Z,12.90
2022-12-31T14:02:41.332Z,12.40
2022-12-31T14:05:12.728Z,11.70
2022-12-31T14:08:02.131Z,9.90
2022-12-31T14:10:39.402Z,9.20
2022-12-31T14:16:17.277Z,10.70
2022-12-31T14:19:12.313Z,13.90
2022-12-31T14:22:04.247Z,13.80
2022-12-31T14:24:44.126Z,9.60
2022-12-31T14:27:24.855Z,12.50
2022-12-31T14:30:06.656Z,13.40
2022-12-31T14:32:57.393Z,13.10
2022-12-31T14:35:31.491Z,18.20
2022-12-31T14:38:04.780Z,13.60
2022-12-31T14:40:43.971Z,22.10
2022-12-31T14:43:49.495Z,14.00
2022-12-31T14:46:36.626Z,10.10
2022-12-31T14:49:47.160Z,17.20
2022-12-31T14:52:18.036Z,14.60
2022-12-31T14:54:46.283Z,15.80
2022-12-31T14:57:17.753Z,12.00
2022-12-31T15:00:00.192Z,18.50
2022-12-31T15:02:35.631Z,15.30
2022-12-31T15:05:16.725Z,10.90
2022-12-31T15:07:48.182Z,17.60
2022-12-31T15:10:25.375Z,13.30
2022-12-31T15:13:07.338Z,12.00
2022-12-31T15:16:02.286Z,15.10
2022-12-31T15:19:02.853Z,15.80
2022-12-31T15:21:34.187Z,17.10
2022-12-31T15:24:13.339Z,14.50
2022-12-31T15:26:58.912Z,17.60
2022-12-31T15:29:51.557Z,16.20
2022-12-31T15:32:25.395Z,12.90
2022-12-31T15:35:30.010Z,21.70
2022-12-31T15:38:15.824Z,18.40
2022-12-31T15:40:52.445Z,21.90
2022-12-31T15:43:44.129Z,20.20
2022-12-31T15:46:21.188Z,17.30
2022-12-31T15:49:04.277Z,18.00
2022-12-31T15:52:01.615Z,22.70
2022-12-31T15:54:42.721Z,14.20
2022-12-31T15:57:23.023Z,18.30
2022-12-31T15:59:58.471Z,12.30
2022-12-31T16:02:29.282Z,15.00
2022-12-31T16:04:57.703Z,23.20
2022-12-31T16:07:28.493Z,20.20
2022-12-31T16:10:00.472Z,20.50
2022-12-31T16:12:39.409Z,17.30
2022-12-31T16:15:22.186Z,15.30
2022-12-31T16:18:05.522Z,17.90
2022-12-31T16:20:40.880Z,21.90
2022-12-31T16:23:42.065Z,17.70
2022-12-31T16:26:12.063Z,16.10
2022-12-31T16:28:40.450Z,11.20
2022-12-31T16:31:17.004Z,12.10
2022-12-31T16:33:46.555Z,14.20
2022-12-31T16:36:20.469Z,20.80
2022-12-31T16:38:49.327Z,17.40
2022-12-31T16:41:19.205Z,23.20
2022-12-31T16:43:51.039Z,18.30
2022-12-31T16:46:38.448Z,23.90
2022-12-31T16:49:19.092Z,18.20
2022-12-31T16:51:47.850Z,17.50
2022-12-31T16:54:26.272Z,24.20
2022-12-31T16:56:54.633Z,17.40
2022-12-31T16:59:35.720Z,19.20
2022-12-31T17:02:16.525Z,15.40
2022-12-31T17:04:56.101Z,11.80
2022-12-31T17:07:26.550Z,15.90
2022-12-31T17:10:07.028Z,18.20
2022-12-31T17:13:08.760Z,16.70
2022-12-31T17:15:41.656Z,16.50
2022-12-31T17:18:20.712Z,21.10
2022-12-31T17:20:54.600Z,16.60
2022-12-31T17:23:32.004Z,16.80
2022-12-31T17:26:07.492Z,16.30
2022-12-31T17:28:48.587Z,13.20
2022-12-31T17:31:38.408Z,19.20
2022-12-31T17:34:12.721Z,18.50
2022-12-31T17:36:52.209Z,20.10
2022-12-31T17:39:23.189Z,19.30
2022-12-31T17:41:55.889Z,18.50
2022-12-31T17:44:28.020Z,20.90
2022-12-31T17:46:56.370Z,21.90
2022-12-31T17:49:30.587Z,13.50
2022-12-31T17:51:58.978Z,18.70
2022-12-31T17:54:27.127Z,19.30
2022-12-31T17:56:55.331Z,22.50
2022-12-31T17:59:26.233Z,17.50
2022-12-31T18:01:55.076Z,15.50
2022-12-31T18:04:23.396Z,18.10
2022-12-31T18:06:52.029Z,19.30
2022-12-31T18:09:22.350Z,13.10
2022-12-31T18:11:50.570Z,17.40
2022-12-31T18:14:18.759Z,22.90
2022-12-31T18:16:47.295Z,13.80
2022-12-31T18:19:45.600Z,17.20
2022-12-31T18:22:04.695Z,16.40
2022-12-31T18:24:33.453Z,13.70
2022-12-31T18:27:01.626Z,12.00
2022-12-31T18:29:29.905Z,16.00
2022-12-31T18:32:01.036Z,17.40
2022-12-31T18:34:29.817Z,24.00
2022-12-31T18:36:59.457Z,19.70
2022-12-31T18:39:27.645Z,30.40
2022-12-31T18:41:56.437Z,29.30
2022-12-31T18:44:25.065Z,31.80
2022-12-31T18:46:53.316Z,33.20
2022-12-31T18:49:21.678Z,28.60
2022-12-31T18:51:50.058Z,32.00
2022-12-31T18:54:18.346Z,30.60
2022-12-31T18:56:50.221Z,34.90
2022-12-31T18:59:20.966Z,26.40
2022-12-31T19:01:49.553Z,28.80
2022-12-31T19:04:26.938Z,32.30
2022-12-31T19:06:56.999Z,29.00
2022-12-31T19:09:45.226Z,26.70
2022-12-31T19:12:15.418Z,25.90
2022-12-31T19:14:43.688Z,26.80
2022-12-31T19:17:12.020Z,24.30
2022-12-31T19:19:40.308Z,30.30
2022-12-31T19:22:15.053Z,25.30
2022-12-31T19:24:43.464Z,28.10
2022-12-31T19:27:14.890Z,24.70
2022-12-31T19:29:43.146Z,29.80
2022-12-31T19:32:11.891Z,24.40
2022-12-31T19:34:40.176Z,28.20
2022-12-31T19:37:19.553Z,26.10
2022-12-31T19:39:48.469Z,26.60
2022-12-31T19:42:17.511Z,25.10
2022-12-31T19:44:45.847Z,27.30
2022-12-31T19:47:14.482Z,35.20
2022-12-31T19:49:43.029Z,20.70
2022-12-31T19:52:11.384Z,21.30
2022-12-31T19:54:39.640Z,22.60
2022-12-31T19:57:07.952Z,23.60
2022-12-31T19:59:36.630Z,24.50
2022-12-31T20:02:04.982Z,31.10
2022-12-31T20:04:33.391Z,21.70
2022-12-31T20:07:01.722Z,25.10
2022-12-31T20:09:30.118Z,22.00
2022-12-31T20:11:58.573Z,18.90
2022-12-31T20:14:27.543Z,19.30
2022-12-31T20:16:55.903Z,20.40
2022-12-31T20:19:24.130Z,22.40
2022-12-31T20:21:52.401Z,27.50
2022-12-31T20:24:20.807Z,25.20
2022-12-31T20:26:49.114Z,26.50
2022-12-31T20:29:17.546Z,23.70
2022-12-31T20:31:45.735Z,21.90
2022-12-31T20:34:14.521Z,22.70
2022-12-31T20:36:42.962Z,22.10
2022-12-31T20:39:11.443Z,21.50
2022-12-31T20:41:40.191Z,21.50
2022-12-31T20:44:09.414Z,21.60
2022-12-31T20:46:37.746Z,19.40
2022-12-31T20:49:06.720Z,25.40
2022-12-31T20:51:35.461Z,28.40
2022-12-31T20:54:06.549Z,19.90
2022-12-31T20:56:37.516Z,23.30
2022-12-31T20:59:07.440Z,23.10
2022-12-31T21:02:11.682Z,22.60
2022-12-31T21:04:26.278Z,22.80
2022-12-31T21:06:54.994Z,22.70
2022-12-31T21:09:23.295Z,19.30
2022-12-31T21:11:51.645Z,20.40
2022-12-31T21:14:19.892Z,23.60
2022-12-31T21:16:48.349Z,28.90
2022-12-31T21:19:17.288Z,18.90
2022-12-31T21:21:45.731Z,23.90
2022-12-31T21:24:17.453Z,26.30
2022-12-31T21:26:48.696Z,25.20
2022-12-31T21:29:16.982Z,25.00
2022-12-31T21:31:45.173Z,28.30
2022-12-31T21:34:13.747Z,25.20
2022-12-31T21:36:42.056Z,27.30
2022-12-31T21:39:10.273Z,24.70
2022-12-31T21:41:38.949Z,27.20
2022-12-31T21:44:07.216Z,26.40
2022-12-31T21:46:35.677Z,25.70
2022-12-31T21:49:04.611Z,23.30
2022-12-31T21:51:32.872Z,26.60
2022-12-31T21:54:01.060Z,21.60
2022-12-31T21:56:29.742Z,25.40
2022-12-31T21:59:00.116Z,28.70
2022-12-31T22:01:28.601Z,26.20
2022-12-31T22:03:57.601Z,31.60
2022-12-31T22:06:26.374Z,27.80
2022-12-31T22:08:56.391Z,22.70
2022-12-31T22:11:28.376Z,26.60
2022-12-31T22:13:59.257Z,26.60
2022-12-31T22:16:27.547Z,27.90
2022-12-31T22:18:56.661Z,25.10
2022-12-31T22:21:27.400Z,29.20
2022-12-31T22:23:57.330Z,28.80
2022-12-31T22:26:28.150Z,26.20
2022-12-31T22:28:56.636Z,27.20
2022-12-31T22:31:27.647Z,25.50
2022-12-31T22:33:56.256Z,24.10
2022-12-31T22:36:26.513Z,16.20
2022-12-31T22:38:57.169Z,24.20
2022-12-31T22:41:27.859Z,24.10
2022-12-31T22:44:03.766Z,28.70
2022-12-31T22:46:34.481Z,27.40
2022-12-31T22:49:04.812Z,26.10
2022-12-31T22:51:57.198Z,32.40
2022-12-31T22:54:22.831Z,25.80
2022-12-31T22:56:51.112Z,24.60
2022-12-31T22:59:19.651Z,36.80
2022-12-31T23:01:48.111Z,25.10
2022-12-31T23:04:16.368Z,27.20
2022-12-31T23:06:45.206Z,21.90
2022-12-31T23:09:15.965Z,24.50
2022-12-31T23:11:44.709Z,20.10
2022-12-31T23:14:17.738Z,28.70
2022-12-31T23:16:46.443Z,21.00
2022-12-31T23:19:16.219Z,23.50
2022-12-31T23:21:45.236Z,19.20
2022-12-31T23:24:20.143Z,18.50
2022-12-31T23:29:19.339Z,17.20
2022-12-31T23:31:47.617Z,18.70
2022-12-31T23:34:16.161Z,21.60
2022-12-31T23:36:44.756Z,25.80
2022-12-31T23:39:13.235Z,25.20
2022-12-31T23:41:41.946Z,20.50
2022-12-31T23:44:11.177Z,27.30
2022-12-31T23:46:40.279Z,25.10
2022-12-31T23:49:09.181Z,29.90
2022-12-31T23:51:37.795Z,27.60
2022-12-31T23:54:06.562Z,38.00
2022-12-31T23:56:34.920Z,29.00
2022-12-31T23:59:03.274Z,31.90
